Time;durP1;ratioP1;P1;durP2;ratioP2;P2;SDS_P1;SDS_P2;PMS_P1;PMS_P2;Temp;Humidity;BMP_temperature;BMP_pressure;BME280_temperature;BME280_humidity;BME280_pressure;Samples;Min_cycle;Max_cycle;Signal;HPM_P1;HPM_P2
2022/03/26 00:03:58;;;;;;;;;;;;;;;5.70;94.35;99583.16;10421700;28;19926;-76
2022/03/26 00:08:58;;;;;;;;;;;;;;;5.77;92.00;99589.06;10400343;28;19948;-77
2022/03/26 00:13:59;;;;;;;;;;;;;;;5.58;94.74;99585.25;10413285;28;20682;-78
2022/03/26 00:18:59;;;;;;;;;;;;;;;5.32;95.52;99581.63;10414317;28;19976;-76
2022/03/26 00:24:00;;;;;;;;;;;;;;;5.28;97.51;99583.16;10387992;28;19925;-76
2022/03/26 00:29:00;;;;;;;;;;;;;;;5.26;99.17;99577.31;10437333;28;19932;-76
2022/03/26 00:34:01;;;;;;;;;;;;;;;5.24;98.26;99579.44;10414004;28;19944;-74
2022/03/26 00:39:01;;;;;;;;;;;;;;;5.12;99.49;99579.59;10409575;28;19939;-76
2022/03/26 00:44:02;;;;;;;;;;;;;;;5.01;99.84;99584.03;10374609;28;20404;-76
2022/03/26 00:49:02;;;;;;;;;;;;;;;4.81;100.00;99584.66;10392382;28;19929;-74
2022/03/26 00:54:03;;;;;;;;;;;;;;;4.83;100.00;99590.53;10412405;28;19972;-76
2022/03/26 00:59:04;;;;;;;;;;;;;;;4.77;100.00;99580.94;10424991;28;19933;-76
2022/03/26 01:04:05;;;;;;;;;;;;;;;4.66;100.00;99581.06;10388248;28;20507;-75
2022/03/26 01:09:07;;;;;;;;;;;;;;;4.69;100.00;99576.06;10401989;28;20045;-76
2022/03/26 01:14:08;;;;;;;;;;;;;;;4.54;100.00;99582.03;10438975;28;19936;-75
2022/03/26 01:19:10;;;;;;;;;;;;;;;4.31;100.00;99568.25;10426610;28;19929;-75
2022/03/26 01:24:10;;;;;;;;;;;;;;;4.06;100.00;99566.91;10386893;28;19972;-76
2022/03/26 01:29:11;;;;;;;;;;;;;;;3.75;100.00;99560.44;10364009;28;20727;-75
2022/03/26 01:34:11;;;;;;;;;;;;;;;3.81;100.00;99561.28;10370618;28;19930;-75
2022/03/26 01:39:12;;;;;;;;;;;;;;;3.37;100.00;99571.84;10390263;28;19929;-76
2022/03/26 01:44:17;;;;;;;;;;;;;;;3.16;100.00;99568.09;10406668;28;19913;-75
2022/03/26 01:49:19;;;;;;;;;;;;;;;2.79;100.00;99573.88;10392633;28;19929;-75
2022/03/26 01:54:19;;;;;;;;;;;;;;;2.66;100.00;99560.16;10367660;28;20361;-77
2022/03/26 01:59:20;;;;;;;;;;;;;;;2.38;100.00;99567.09;10400022;28;19933;-76
2022/03/26 02:04:21;;;;;;;;;;;;;;;2.35;100.00;99564.88;10406998;28;19913;-76
2022/03/26 02:09:23;;;;;;;;;;;;;;;2.47;100.00;99578.06;10409943;28;20007;-76
2022/03/26 02:14:24;;;;;;;;;;;;;;;2.64;100.00;99578.91;10403993;28;19929;-76
2022/03/26 02:19:24;;;;;;;;;;;;;;;2.62;100.00;99578.34;10369621;28;20331;-78
2022/03/26 02:24:25;;;;;;;;;;;;;;;2.87;100.00;99571.88;10423451;28;19992;-77
2022/03/26 02:29:28;;;;;;;;;;;;;;;2.86;100.00;99579.03;10436647;28;20285;-77
2022/03/26 02:34:28;;;;;;;;;;;;;;;2.79;100.00;99579.19;10437790;28;19925;-76
2022/03/26 02:39:31;;;;;;;;;;;;;;;2.98;100.00;99578.94;10435791;28;20394;-76
2022/03/26 02:44:32;;;;;;;;;;;;;;;2.64;100.00;99565.66;10410468;28;20604;-76
2022/03/26 02:49:34;;;;;;;;;;;;;;;2.50;100.00;99561.72;10401150;28;19972;-75
2022/03/26 02:54:35;;;;;;;;;;;;;;;2.51;100.00;99553.53;10395364;28;19929;-76
2022/03/26 02:59:37;;;;;;;;;;;;;;;2.33;100.00;99559.03;10374459;28;19936;-75
2022/03/26 03:04:38;;;;;;;;;;;;;;;2.09;100.00;99552.22;10398965;28;19925;-78
2022/03/26 03:09:39;;;;;;;;;;;;;;;1.89;100.00;99560.56;10375651;28;19955;-74
2022/03/26 03:14:39;;;;;;;;;;;;;;;1.72;100.00;99571.06;10397606;28;20017;-76
2022/03/26 03:19:40;;;;;;;;;;;;;;;1.82;100.00;99568.63;10408798;28;19949;-76
2022/03/26 03:24:40;;;;;;;;;;;;;;;1.78;100.00;99566.69;10412836;28;19930;-76
2022/03/26 03:29:41;;;;;;;;;;;;;;;1.65;100.00;99565.13;10425353;28;19913;-75
2022/03/26 03:34:43;;;;;;;;;;;;;;;1.31;100.00;99564.91;10409076;28;19936;-76
2022/03/26 03:39:44;;;;;;;;;;;;;;;1.38;100.00;99570.09;10398008;28;20443;-76
2022/03/26 03:44:44;;;;;;;;;;;;;;;1.50;100.00;99562.94;10406971;28;19929;-75
2022/03/26 03:49:44;;;;;;;;;;;;;;;1.74;100.00;99568.19;10416958;28;20027;-76
2022/03/26 03:54:45;;;;;;;;;;;;;;;1.73;100.00;99571.88;10387018;28;19933;-76
2022/03/26 03:59:45;;;;;;;;;;;;;;;1.56;100.00;99569.97;10413869;28;19928;-74
2022/03/26 04:04:46;;;;;;;;;;;;;;;1.69;100.00;99568.91;10402580;28;19929;-76
2022/03/26 04:09:46;;;;;;;;;;;;;;;1.78;100.00;99572.78;10389086;28;20014;-75
2022/03/26 04:14:48;;;;;;;;;;;;;;;1.92;100.00;99578.63;10396159;28;20453;-76
2022/03/26 04:19:50;;;;;;;;;;;;;;;1.87;100.00;99586.47;10369079;28;20777;-76
2022/03/26 04:24:51;;;;;;;;;;;;;;;1.90;100.00;99593.94;10390961;28;19937;-76
2022/03/26 04:29:51;;;;;;;;;;;;;;;1.84;100.00;99600.19;10397794;28;19925;-74
2022/03/26 04:34:52;;;;;;;;;;;;;;;1.93;100.00;99596.13;10374435;28;19955;-76
2022/03/26 04:39:52;;;;;;;;;;;;;;;1.86;100.00;99604.19;10381189;28;19929;-75
2022/03/26 04:44:53;;;;;;;;;;;;;;;1.92;100.00;99608.56;10380744;28;19925;-76
2022/03/26 04:49:53;;;;;;;;;;;;;;;1.80;100.00;99599.81;10365202;28;20027;-75
2022/03/26 04:54:53;;;;;;;;;;;;;;;1.71;100.00;99603.88;10393738;28;19983;-77
2022/03/26 04:59:54;;;;;;;;;;;;;;;1.78;100.00;99612.50;10397280;28;19984;-74
2022/03/26 05:04:54;;;;;;;;;;;;;;;1.73;100.00;99616.88;10397907;28;19929;-77
2022/03/26 05:09:55;;;;;;;;;;;;;;;1.65;100.00;99626.78;10381775;28;20794;-76
2022/03/26 05:14:56;;;;;;;;;;;;;;;1.71;100.00;99623.19;10417176;28;19951;-73
2022/03/26 05:19:58;;;;;;;;;;;;;;;1.73;100.00;99625.59;10411980;28;19933;-76
2022/03/26 05:24:58;;;;;;;;;;;;;;;1.70;100.00;99628.72;10440880;28;19932;-76
2022/03/26 05:29:59;;;;;;;;;;;;;;;1.69;100.00;99627.13;10427421;28;19943;-76
2022/03/26 05:34:59;;;;;;;;;;;;;;;1.84;100.00;99624.81;10415608;28;20360;-75
2022/03/26 05:40:00;;;;;;;;;;;;;;;1.88;100.00;99631.25;10378788;28;19932;-77
2022/03/26 05:45:02;;;;;;;;;;;;;;;2.05;100.00;99633.16;10395479;28;20852;-76
2022/03/26 05:50:05;;;;;;;;;;;;;;;2.25;100.00;99629.06;10381798;28;20303;-76
2022/03/26 05:55:06;;;;;;;;;;;;;;;2.29;100.00;99637.38;10386713;28;19925;-76
2022/03/26 06:00:07;;;;;;;;;;;;;;;2.36;100.00;99643.31;10403843;28;19926;-77
2022/03/26 06:05:08;;;;;;;;;;;;;;;2.47;100.00;99649.63;10398280;28;19987;-76
2022/03/26 06:10:08;;;;;;;;;;;;;;;2.62;100.00;99657.06;10415479;28;20328;-76
2022/03/26 06:15:09;;;;;;;;;;;;;;;2.70;100.00;99657.50;10430037;28;19951;-77
2022/03/26 06:20:13;;;;;;;;;;;;;;;2.96;100.00;99660.59;10417634;28;19929;-76
2022/03/26 06:25:15;;;;;;;;;;;;;;;3.15;100.00;99669.94;10373818;28;20232;-75
2022/03/26 06:30:16;;;;;;;;;;;;;;;3.38;100.00;99669.81;10383534;28;19933;-75
2022/03/26 06:35:16;;;;;;;;;;;;;;;3.87;100.00;99666.53;10402386;28;19925;-80
2022/03/26 06:40:17;;;;;;;;;;;;;;;3.70;100.00;99663.91;10405245;28;19933;-80
2022/03/26 06:45:18;;;;;;;;;;;;;;;4.10;100.00;99668.16;10383950;28;19934;-77
2022/03/26 06:50:18;;;;;;;;;;;;;;;4.69;100.00;99661.16;10395034;28;19933;-76
2022/03/26 06:55:18;;;;;;;;;;;;;;;4.73;100.00;99669.44;10397621;28;20388;-76
2022/03/26 07:00:19;;;;;;;;;;;;;;;5.12;100.00;99673.56;10422207;28;19964;-78
2022/03/26 07:05:20;;;;;;;;;;;;;;;5.44;100.00;99680.72;10426196;28;20295;-77
2022/03/26 07:10:23;;;;;;;;;;;;;;;6.73;100.00;99673.16;10378157;28;19988;-77
2022/03/26 07:15:23;;;;;;;;;;;;;;;6.34;100.00;99662.91;10393400;28;20411;-77
2022/03/26 07:20:24;;;;;;;;;;;;;;;6.63;100.00;99673.16;10391657;28;19929;-76
2022/03/26 07:25:25;;;;;;;;;;;;;;;6.77;100.00;99677.72;10367144;28;19983;-76
2022/03/26 07:30:26;;;;;;;;;;;;;;;6.87;100.00;99682.28;10400468;28;19978;-77
2022/03/26 07:35:30;;;;;;;;;;;;;;;7.34;96.78;99675.94;10400235;28;20319;-78
2022/03/26 07:40:32;;;;;;;;;;;;;;;7.61;94.80;99683.66;10388101;28;20446;-78
2022/03/26 07:45:33;;;;;;;;;;;;;;;8.01;91.98;99674.78;10383939;28;19978;-78
2022/03/26 07:50:35;;;;;;;;;;;;;;;8.12;90.02;99670.19;10376090;28;19936;-75
2022/03/26 07:55:37;;;;;;;;;;;;;;;8.50;89.54;99674.09;10382440;28;19940;-79
2022/03/26 08:00:43;;;;;;;;;;;;;;;8.67;86.27;99677.22;10378842;28;20052;-78
2022/03/26 08:05:45;;;;;;;;;;;;;;;8.54;87.06;99681.31;10370062;28;19929;-79
2022/03/26 08:10:49;;;;;;;;;;;;;;;8.56;88.54;99689.06;10384669;28;19925;-79
2022/03/26 08:15:51;;;;;;;;;;;;;;;9.08;85.83;99680.47;10365248;28;19929;-79
2022/03/26 08:20:52;;;;;;;;;;;;;;;9.33;83.62;99687.53;10373007;28;20024;-77
2022/03/26 08:31:13;;;;;;;;;;;;;;;9.62;80.56;99692.13;10375946;28;19988;-77
2022/03/26 08:36:17;;;;;;;;;;;;;;;9.54;81.55;99695.41;10389253;28;20392;-77
2022/03/26 08:41:20;;;;;;;;;;;;;;;9.89;81.88;99694.28;10383555;28;19929;-76
2022/03/26 08:46:20;;;;;;;;;;;;;;;10.17;76.59;99690.75;10397332;28;20422;-76
2022/03/26 08:51:21;;;;;;;;;;;;;;;10.46;75.28;99696.09;10386909;28;19929;-76
2022/03/26 08:56:22;;;;;;;;;;;;;;;10.49;76.31;99697.38;10399521;28;20429;-76
2022/03/26 09:01:24;;;;;;;;;;;;;;;10.66;75.90;99703.09;10361572;28;20011;-76
2022/03/26 09:06:27;;;;;;;;;;;;;;;11.16;70.06;99694.63;10360126;28;19931;-77
2022/03/26 09:11:27;;;;;;;;;;;;;;;11.07;71.73;99689.13;10387014;28;20012;-77
2022/03/26 09:16:29;;;;;;;;;;;;;;;11.53;72.39;99693.78;10390653;28;19935;-77
2022/03/26 09:21:29;;;;;;;;;;;;;;;11.60;70.55;99702.25;10404006;28;19929;-76
2022/03/26 09:26:30;;;;;;;;;;;;;;;11.86;67.96;99694.56;10422391;28;19975;-77
2022/03/26 09:31:31;;;;;;;;;;;;;;;12.18;66.92;99685.66;10425341;28;19952;-76
2022/03/26 09:36:31;;;;;;;;;;;;;;;12.35;64.58;99696.63;10420056;28;19929;-75
2022/03/26 09:41:32;;;;;;;;;;;;;;;12.39;63.00;99688.72;10414485;28;19944;-75
2022/03/26 09:46:36;;;;;;;;;;;;;;;12.74;63.19;99692.59;10426571;28;19929;-77
2022/03/26 09:51:38;;;;;;;;;;;;;;;12.59;62.96;99688.31;10389780;28;19984;-75
2022/03/26 09:56:39;;;;;;;;;;;;;;;13.25;64.48;99692.25;10423112;28;19956;-76
2022/03/26 10:01:39;;;;;;;;;;;;;;;13.26;58.27;99680.41;10363652;28;19931;-75
2022/03/26 10:06:51;;;;;;;;;;;;;;;13.76;62.07;99680.22;10351048;28;19929;-75
2022/03/26 10:11:58;;;;;;;;;;;;;;;14.04;55.77;99672.75;10382320;28;19955;-76
2022/03/26 10:17:07;;;;;;;;;;;;;;;14.38;54.91;99676.69;10350313;28;19929;-76
2022/03/26 10:22:24;;;;;;;;;;;;;;;14.21;55.49;99664.72;10409498;28;19926;-78
2022/03/26 10:27:24;;;;;;;;;;;;;;;14.43;53.00;99668.41;10410099;28;20289;-75
2022/03/26 10:32:41;;;;;;;;;;;;;;;14.67;52.54;99657.22;10368730;28;19937;-75
2022/03/26 10:37:44;;;;;;;;;;;;;;;15.51;50.58;99654.00;10393851;28;19976;-75
2022/03/26 10:42:44;;;;;;;;;;;;;;;16.20;50.26;99648.38;10380743;28;20269;-75
2022/03/26 10:47:46;;;;;;;;;;;;;;;16.52;50.60;99648.03;10366744;28;19930;-72
2022/03/26 10:52:52;;;;;;;;;;;;;;;16.44;46.97;99642.34;10398167;28;19929;-71
2022/03/26 10:57:53;;;;;;;;;;;;;;;16.10;42.81;99627.09;10392405;28;19930;-73
2022/03/26 11:02:53;;;;;;;;;;;;;;;16.58;38.87;99625.84;10403408;28;19957;-72
2022/03/26 11:07:55;;;;;;;;;;;;;;;16.20;37.66;99625.94;10422509;28;20291;-76
2022/03/26 11:12:58;;;;;;;;;;;;;;;16.69;39.60;99620.84;10398198;28;19933;-77
2022/03/26 11:18:16;;;;;;;;;;;;;;;16.56;37.25;99622.69;10381165;28;19975;-71
2022/03/26 11:23:19;;;;;;;;;;;;;;;16.40;38.10;99610.81;10375216;28;19952;-73
2022/03/26 11:28:21;;;;;;;;;;;;;;;17.37;36.24;99604.28;10393641;28;19929;-74
2022/03/26 11:33:24;;;;;;;;;;;;;;;17.61;35.49;99585.34;10387485;28;19929;-74
2022/03/26 11:38:28;;;;;;;;;;;;;;;17.95;37.67;99583.38;10373992;28;19930;-74
2022/03/26 11:43:43;;;;;;;;;;;;;;;17.65;35.83;99583.56;10401736;28;20002;-73
2022/03/26 11:54:06;;;;;;;;;;;;;;;18.52;39.63;99568.78;10372717;28;19989;-73
2022/03/26 11:59:07;;;;;;;;;;;;;;;17.83;35.14;99562.41;10382021;28;20109;-74
2022/03/26 12:04:08;;;;;;;;;;;;;;;18.13;38.30;99555.63;10385491;28;19939;-75
2022/03/26 12:09:10;;;;;;;;;;;;;;;18.50;33.90;99546.59;10389372;28;19932;-74
2022/03/26 12:14:10;;;;;;;;;;;;;;;18.11;33.54;99540.81;10406691;28;19929;-73
2022/03/26 12:19:10;;;;;;;;;;;;;;;17.88;34.94;99543.19;10388679;28;19929;-75
2022/03/26 12:24:17;;;;;;;;;;;;;;;18.56;35.33;99534.31;10378050;28;19925;-73
2022/03/26 12:29:17;;;;;;;;;;;;;;;18.24;34.35;99536.91;10365604;28;19933;-76
2022/03/26 12:34:18;;;;;;;;;;;;;;;19.12;32.97;99523.47;10393048;28;19940;-74
2022/03/26 12:39:18;;;;;;;;;;;;;;;18.21;31.50;99534.91;10390607;28;19936;-71
2022/03/26 12:44:20;;;;;;;;;;;;;;;18.54;32.89;99528.44;10373805;28;19932;-72
2022/03/26 12:49:21;;;;;;;;;;;;;;;19.08;31.60;99512.47;10388318;28;19971;-71
2022/03/26 12:54:22;;;;;;;;;;;;;;;18.90;30.76;99512.00;10368824;28;19936;-71
2022/03/26 12:59:22;;;;;;;;;;;;;;;19.53;30.41;99512.06;10395256;28;21815;-74
2022/03/26 13:04:23;;;;;;;;;;;;;;;19.83;30.91;99496.06;10377618;28;19972;-72
2022/03/26 13:09:32;;;;;;;;;;;;;;;19.82;29.35;99510.03;10367686;28;19973;-72
2022/03/26 13:14:32;;;;;;;;;;;;;;;20.45;30.46;99496.25;10387358;28;19992;-73
2022/03/26 13:19:33;;;;;;;;;;;;;;;20.57;28.13;99501.56;10388748;28;20011;-72
2022/03/26 13:24:34;;;;;;;;;;;;;;;21.11;25.32;99495.16;10389165;28;19955;-73
2022/03/26 13:29:35;;;;;;;;;;;;;;;21.25;25.38;99483.72;10391572;28;20025;-74
2022/03/26 13:34:39;;;;;;;;;;;;;;;20.41;24.50;99481.75;10381046;28;19929;-73
2022/03/26 13:39:42;;;;;;;;;;;;;;;21.60;23.80;99480.78;10407983;28;19929;-73
2022/03/26 13:44:44;;;;;;;;;;;;;;;21.09;23.08;99475.63;10413156;28;19925;-73
2022/03/26 13:49:45;;;;;;;;;;;;;;;19.76;27.22;99476.06;10416087;28;19941;-77
2022/03/26 13:54:45;;;;;;;;;;;;;;;20.22;24.38;99470.81;10405524;28;19936;-77
2022/03/26 13:59:48;;;;;;;;;;;;;;;20.40;26.53;99466.53;10376398;28;19929;-77
2022/03/26 14:04:49;;;;;;;;;;;;;;;20.13;25.95;99465.59;10392104;28;19929;-76
2022/03/26 14:09:54;;;;;;;;;;;;;;;20.94;28.16;99457.44;10384320;28;20292;-76
2022/03/26 14:14:54;;;;;;;;;;;;;;;20.33;26.57;99453.53;10371806;28;20403;-76
2022/03/26 14:19:54;;;;;;;;;;;;;;;19.62;26.67;99453.94;10379067;28;19929;-76
2022/03/26 14:24:55;;;;;;;;;;;;;;;19.26;27.96;99448.41;10414380;28;19925;-77
2022/03/26 14:29:56;;;;;;;;;;;;;;;19.23;25.26;99438.22;10383570;28;19929;-76
2022/03/26 14:34:56;;;;;;;;;;;;;;;19.27;25.09;99439.09;10368534;28;20734;-77
2022/03/26 14:39:57;;;;;;;;;;;;;;;19.09;26.35;99428.91;10380428;28;20645;-77
2022/03/26 14:44:57;;;;;;;;;;;;;;;18.80;26.88;99441.78;10366573;28;20383;-75
2022/03/26 14:49:57;;;;;;;;;;;;;;;18.66;25.24;99431.34;10401385;28;19929;-76
2022/03/26 14:54:58;;;;;;;;;;;;;;;18.60;26.88;99429.19;10390718;28;19925;-76
2022/03/26 14:59:58;;;;;;;;;;;;;;;18.23;27.23;99421.19;10388736;28;19961;-76
2022/03/26 15:04:59;;;;;;;;;;;;;;;17.86;29.55;99425.94;10373494;28;20387;-76
2022/03/26 15:10:00;;;;;;;;;;;;;;;17.99;27.53;99422.06;10394198;28;20016;-77
2022/03/26 15:15:01;;;;;;;;;;;;;;;17.83;26.52;99421.19;10391614;28;20281;-77
2022/03/26 15:20:02;;;;;;;;;;;;;;;17.56;28.08;99414.56;10377615;28;19960;-77
2022/03/26 15:25:03;;;;;;;;;;;;;;;17.47;29.30;99422.81;10389063;28;20671;-76
2022/03/26 15:30:07;;;;;;;;;;;;;;;17.30;28.01;99418.41;10396627;28;19925;-76
2022/03/26 15:35:09;;;;;;;;;;;;;;;17.12;28.74;99417.03;10377888;28;19933;-76
2022/03/26 15:40:10;;;;;;;;;;;;;;;16.85;28.06;99418.47;10380172;28;19936;-76
2022/03/26 15:45:12;;;;;;;;;;;;;;;16.96;31.40;99419.63;10380322;28;19925;-76
2022/03/26 15:50:13;;;;;;;;;;;;;;;16.91;30.24;99419.03;10392653;28;19936;-75
2022/03/26 15:55:14;;;;;;;;;;;;;;;16.89;30.96;99411.25;10370581;28;20300;-76
2022/03/26 16:00:15;;;;;;;;;;;;;;;16.81;31.06;99409.41;10356015;28;19940;-77
2022/03/26 16:05:15;;;;;;;;;;;;;;;16.75;30.36;99410.78;10386740;28;19932;-71
2022/03/26 16:10:16;;;;;;;;;;;;;;;16.68;30.28;99421.34;10375145;28;19944;-72
2022/03/26 16:15:16;;;;;;;;;;;;;;;16.48;31.01;99423.78;10359947;28;19930;-73
2022/03/26 16:20:16;;;;;;;;;;;;;;;16.44;32.46;99427.47;10394122;28;19933;-74
2022/03/26 16:25:17;;;;;;;;;;;;;;;16.27;32.55;99430.34;10397229;28;19929;-75
2022/03/26 16:30:17;;;;;;;;;;;;;;;16.28;32.40;99430.03;10388803;28;20304;-71
2022/03/26 16:35:24;;;;;;;;;;;;;;;16.11;33.88;99435.59;10377831;28;19932;-73
2022/03/26 16:40:24;;;;;;;;;;;;;;;16.13;32.85;99438.75;10381786;28;19934;-73
2022/03/26 16:45:25;;;;;;;;;;;;;;;15.96;34.13;99447.78;10398569;28;20384;-73
2022/03/26 16:50:25;;;;;;;;;;;;;;;15.87;35.03;99447.84;10381684;28;19984;-73
2022/03/26 16:55:28;;;;;;;;;;;;;;;15.52;35.02;99441.81;10401427;28;20032;-72
2022/03/26 17:00:29;;;;;;;;;;;;;;;15.42;35.88;99441.41;10405675;28;19925;-72
2022/03/26 17:05:29;;;;;;;;;;;;;;;15.27;36.58;99438.16;10383970;28;19925;-73
2022/03/26 17:10:30;;;;;;;;;;;;;;;15.20;37.28;99437.84;10373697;28;19929;-73
2022/03/26 17:15:30;;;;;;;;;;;;;;;15.16;37.01;99436.91;10370457;28;20479;-73
2022/03/26 17:20:30;;;;;;;;;;;;;;;15.00;38.06;99444.78;10390778;28;20052;-74
2022/03/26 17:25:31;;;;;;;;;;;;;;;14.81;38.68;99444.31;10375488;28;19925;-75
2022/03/26 17:30:31;;;;;;;;;;;;;;;14.59;39.29;99441.84;10383821;28;19929;-77
2022/03/26 17:35:32;;;;;;;;;;;;;;;14.39;39.72;99440.56;10388922;28;19933;-76
2022/03/26 17:40:33;;;;;;;;;;;;;;;14.27;40.05;99443.94;10381876;28;19938;-79
2022/03/26 17:45:36;;;;;;;;;;;;;;;14.16;40.27;99443.44;10412777;28;19924;-79
2022/03/26 17:50:36;;;;;;;;;;;;;;;14.15;41.23;99447.25;10427713;28;19929;-77
2022/03/26 17:55:39;;;;;;;;;;;;;;;14.16;41.43;99453.44;10412290;28;19935;-76
2022/03/26 18:00:42;;;;;;;;;;;;;;;13.94;42.86;99452.47;10381743;28;19936;-78
2022/03/26 18:05:43;;;;;;;;;;;;;;;13.61;44.02;99457.50;10390057;28;20012;-77
2022/03/26 18:10:44;;;;;;;;;;;;;;;13.21;47.36;99456.75;10391532;28;19933;-76
2022/03/26 18:15:44;;;;;;;;;;;;;;;12.67;51.85;99465.94;10383474;28;19929;-77
2022/03/26 18:20:45;;;;;;;;;;;;;;;12.48;54.23;99466.13;10368830;28;19933;-77
2022/03/26 18:25:45;;;;;;;;;;;;;;;12.01;60.61;99476.34;10370430;28;19933;-77
2022/03/26 18:30:45;;;;;;;;;;;;;;;11.62;67.43;99479.56;10352684;28;20002;-76
2022/03/26 18:35:47;;;;;;;;;;;;;;;11.27;72.97;99484.53;10379912;28;19933;-76
2022/03/26 18:40:49;;;;;;;;;;;;;;;10.87;80.26;99486.06;10413529;28;19925;-76
2022/03/26 18:45:49;;;;;;;;;;;;;;;10.75;83.50;99489.22;10386036;28;19929;-76
2022/03/26 18:50:51;;;;;;;;;;;;;;;10.59;82.47;99498.59;10390045;28;19994;-77
2022/03/26 18:55:52;;;;;;;;;;;;;;;10.21;93.02;99506.66;10352664;28;19936;-78
2022/03/26 19:00:52;;;;;;;;;;;;;;;10.02;93.63;99507.72;10366217;28;19929;-80
2022/03/26 19:05:53;;;;;;;;;;;;;;;9.82;89.86;99514.94;10366997;28;19925;-77
2022/03/26 19:10:55;;;;;;;;;;;;;;;9.68;87.97;99514.84;10389045;28;19929;-76
2022/03/26 19:15:57;;;;;;;;;;;;;;;9.47;88.42;99512.69;10388915;28;19933;-77
2022/03/26 19:20:58;;;;;;;;;;;;;;;9.44;86.40;99514.06;10374571;28;19930;-77
2022/03/26 19:26:00;;;;;;;;;;;;;;;9.25;91.12;99514.00;10383000;28;19925;-77
2022/03/26 19:31:00;;;;;;;;;;;;;;;9.03;96.44;99525.16;10401991;28;19925;-76
2022/03/26 19:36:02;;;;;;;;;;;;;;;8.85;94.99;99525.84;10410232;28;19930;-76
2022/03/26 19:41:03;;;;;;;;;;;;;;;8.80;96.75;99533.94;10387717;28;19925;-77
2022/03/26 19:46:04;;;;;;;;;;;;;;;8.69;97.92;99537.78;10374943;28;19933;-77
2022/03/26 19:51:05;;;;;;;;;;;;;;;8.54;97.47;99536.81;10366200;28;20044;-76
2022/03/26 19:56:05;;;;;;;;;;;;;;;8.32;100.00;99546.28;10376522;28;19929;-76
2022/03/26 20:01:08;;;;;;;;;;;;;;;8.10;100.00;99547.47;10382024;28;19936;-77
2022/03/26 20:06:10;;;;;;;;;;;;;;;7.96;100.00;99557.97;10384515;28;19936;-75
2022/03/26 20:11:10;;;;;;;;;;;;;;;7.82;100.00;99566.84;10365199;28;19990;-74
2022/03/26 20:21:30;;;;;;;;;;;;;;;7.63;100.00;99575.44;10412947;28;19929;-75
2022/03/26 20:26:30;;;;;;;;;;;;;;;7.53;100.00;99578.16;10402251;28;19936;-77
2022/03/26 20:31:31;;;;;;;;;;;;;;;7.40;100.00;99576.00;10393209;28;19957;-75
2022/03/26 20:36:31;;;;;;;;;;;;;;;7.21;100.00;99586.47;10391806;28;19987;-76
2022/03/26 20:41:32;;;;;;;;;;;;;;;7.55;100.00;99586.69;10368726;28;19929;-76
2022/03/26 20:46:33;;;;;;;;;;;;;;;8.01;100.00;99597.25;10371655;28;19936;-74
2022/03/26 20:51:33;;;;;;;;;;;;;;;8.05;100.00;99600.19;10378628;28;19929;-77
2022/03/26 20:56:33;;;;;;;;;;;;;;;8.06;100.00;99599.91;10390596;28;19937;-76
2022/03/26 21:01:34;;;;;;;;;;;;;;;8.12;100.00;99595.31;10363518;28;19926;-76
2022/03/26 21:06:34;;;;;;;;;;;;;;;7.81;100.00;99600.00;10386159;28;19928;-76
2022/03/26 21:11:36;;;;;;;;;;;;;;;7.61;100.00;99612.31;10389884;28;20349;-75
2022/03/26 21:16:39;;;;;;;;;;;;;;;7.53;100.00;99604.88;10376686;28;20020;-76
2022/03/26 21:21:40;;;;;;;;;;;;;;;7.33;100.00;99612.91;10373622;28;19928;-75
2022/03/26 21:26:41;;;;;;;;;;;;;;;7.21;100.00;99610.50;10352326;28;19925;-75
2022/03/26 21:31:41;;;;;;;;;;;;;;;6.91;100.00;99615.81;10376262;28;19944;-76
2022/03/26 21:36:43;;;;;;;;;;;;;;;6.56;100.00;99626.16;10369975;28;20028;-75
2022/03/26 21:41:44;;;;;;;;;;;;;;;6.46;100.00;99622.69;10376111;28;19979;-75
2022/03/26 21:46:45;;;;;;;;;;;;;;;6.29;100.00;99617.56;10379251;28;19934;-75
2022/03/26 21:51:46;;;;;;;;;;;;;;;6.15;100.00;99627.13;10393113;28;19932;-74
2022/03/26 21:56:46;;;;;;;;;;;;;;;6.02;100.00;99632.91;10402390;28;19933;-77
2022/03/26 22:01:47;;;;;;;;;;;;;;;5.87;100.00;99631.75;10411273;28;19948;-75
2022/03/26 22:06:48;;;;;;;;;;;;;;;5.81;100.00;99637.31;10423132;28;19956;-75
2022/03/26 22:11:49;;;;;;;;;;;;;;;5.53;100.00;99641.13;10388221;28;19940;-75
2022/03/26 22:16:49;;;;;;;;;;;;;;;5.62;100.00;99644.91;10372922;28;19951;-75
2022/03/26 22:21:49;;;;;;;;;;;;;;;5.49;100.00;99648.84;10392932;28;19983;-77
2022/03/26 22:26:50;;;;;;;;;;;;;;;5.41;100.00;99647.44;10355240;28;19929;-75
2022/03/26 22:31:52;;;;;;;;;;;;;;;5.23;100.00;99642.50;10394581;28;19944;-74
2022/03/26 22:36:52;;;;;;;;;;;;;;;5.23;100.00;99644.38;10387953;28;20392;-75
2022/03/26 22:41:52;;;;;;;;;;;;;;;5.20;100.00;99643.00;10378096;28;19994;-76
2022/03/26 22:46:53;;;;;;;;;;;;;;;5.27;100.00;99642.78;10750735;22;19929;-75
2022/03/26 22:51:53;;;;;;;;;;;;;;;5.29;100.00;99640.66;10402386;28;19932;-74
2022/03/26 22:56:53;;;;;;;;;;;;;;;5.07;100.00;99641.56;10441755;28;19976;-74
2022/03/26 23:02:01;;;;;;;;;;;;;;;5.17;100.00;99637.38;10476401;28;19936;-74
2022/03/26 23:07:01;;;;;;;;;;;;;;;5.35;100.00;99637.81;10452241;28;19935;-74
2022/03/26 23:12:03;;;;;;;;;;;;;;;4.99;100.00;99641.22;10459019;28;20225;-76
2022/03/26 23:17:05;;;;;;;;;;;;;;;4.91;100.00;99639.03;10463846;28;19928;-75
2022/03/26 23:22:06;;;;;;;;;;;;;;;4.69;100.00;99645.19;10472332;28;19964;-73
2022/03/26 23:27:10;;;;;;;;;;;;;;;4.61;100.00;99644.84;10469503;28;19924;-75
2022/03/26 23:32:10;;;;;;;;;;;;;;;4.56;100.00;99641.06;10469545;28;19931;-75
2022/03/26 23:37:11;;;;;;;;;;;;;;;4.46;100.00;99654.25;10459669;28;19936;-77
2022/03/26 23:42:11;;;;;;;;;;;;;;;4.17;100.00;99661.63;10418264;28;19925;-74
2022/03/26 23:47:12;;;;;;;;;;;;;;;4.09;100.00;99674.53;10437757;28;20247;-74
2022/03/26 23:52:13;;;;;;;;;;;;;;;4.14;100.00;99677.25;10429528;28;19928;-76
2022/03/26 23:57:14;;;;;;;;;;;;;;;4.27;100.00;99671.56;10423853;28;19952;-77
